sensor_id;sensor_type;location;lat;lon;timestamp;temperature;humidity
36002;DHT22;22070;50.922;5.430;2023-02-14T00:01:31;3.60;99.90
36002;DHT22;22070;50.922;5.430;2023-02-14T00:03:56;3.60;99.90
36002;DHT22;22070;50.922;5.430;2023-02-14T00:06:25;3.60;99.90
36002;DHT22;22070;50.922;5.430;2023-02-14T00:08:50;3.60;99.90
36002;DHT22;22070;50.922;5.430;2023-02-14T00:11:18;3.60;99.90
36002;DHT22;22070;50.922;5.430;2023-02-14T00:13:44;3.50;99.90
36002;DHT22;22070;50.922;5.430;2023-02-14T00:16:28;3.50;99.90
36002;DHT22;22070;50.922;5.430;2023-02-14T00:18:54;3.50;99.90
36002;DHT22;22070;50.922;5.430;2023-02-14T00:24:51;3.40;99.90
36002;DHT22;22070;50.922;5.430;2023-02-14T00:27:16;3.40;99.90
36002;DHT22;22070;50.922;5.430;2023-02-14T00:29:42;3.30;99.90
36002;DHT22;22070;50.922;5.430;2023-02-14T00:32:08;3.30;99.90
36002;DHT22;22070;50.922;5.430;2023-02-14T00:34:33;3.30;99.90
36002;DHT22;22070;50.922;5.430;2023-02-14T00:37:01;3.30;99.90
36002;DHT22;22070;50.922;5.430;2023-02-14T00:39:26;3.30;99.90
36002;DHT22;22070;50.922;5.430;2023-02-14T00:45:08;3.20;99.90
36002;DHT22;22070;50.922;5.430;2023-02-14T00:47:34;3.20;99.90
36002;DHT22;22070;50.922;5.430;2023-02-14T00:53:43;3.20;99.90
36002;DHT22;22070;50.922;5.430;2023-02-14T00:56:28;3.10;99.90
36002;DHT22;22070;50.922;5.430;2023-02-14T00:58:54;3.20;99.90
36002;DHT22;22070;50.922;5.430;2023-02-14T01:01:20;3.20;99.90
36002;DHT22;22070;50.922;5.430;2023-02-14T01:03:46;3.20;99.90
36002;DHT22;22070;50.922;5.430;2023-02-14T01:06:12;3.20;99.90
36002;DHT22;22070;50.922;5.430;2023-02-14T01:08:38;3.20;99.90
36002;DHT22;22070;50.922;5.430;2023-02-14T01:13:37;3.10;99.90
36002;DHT22;22070;50.922;5.430;2023-02-14T01:16:08;3.10;99.90
36002;DHT22;22070;50.922;5.430;2023-02-14T01:18:35;3.10;99.90
36002;DHT22;22070;50.922;5.430;2023-02-14T01:23:35;3.00;99.90
36002;DHT22;22070;50.922;5.430;2023-02-14T01:26:05;3.00;99.90
36002;DHT22;22070;50.922;5.430;2023-02-14T01:28:32;3.00;99.90
36002;DHT22;22070;50.922;5.430;2023-02-14T01:31:37;3.00;99.90
36002;DHT22;22070;50.922;5.430;2023-02-14T01:37:53;3.00;99.90
36002;DHT22;22070;50.922;5.430;2023-02-14T01:40:19;2.90;99.90
36002;DHT22;22070;50.922;5.430;2023-02-14T01:42:45;3.00;99.90
36002;DHT22;22070;50.922;5.430;2023-02-14T01:45:20;2.90;99.90
36002;DHT22;22070;50.922;5.430;2023-02-14T01:47:49;3.00;99.90
36002;DHT22;22070;50.922;5.430;2023-02-14T01:50:36;2.90;99.90
36002;DHT22;22070;50.922;5.430;2023-02-14T01:57:07;2.80;99.90
36002;DHT22;22070;50.922;5.430;2023-02-14T02:06:39;2.70;99.90
36002;DHT22;22070;50.922;5.430;2023-02-14T02:35:54;2.80;99.90
36002;DHT22;22070;50.922;5.430;2023-02-14T02:59:27;2.40;99.90
36002;DHT22;22070;50.922;5.430;2023-02-14T03:08:16;2.30;99.90
36002;DHT22;22070;50.922;5.430;2023-02-14T03:27:15;2.10;99.90
36002;DHT22;22070;50.922;5.430;2023-02-14T03:30:20;2.10;99.90
36002;DHT22;22070;50.922;5.430;2023-02-14T03:32:57;2.10;99.90
36002;DHT22;22070;50.922;5.430;2023-02-14T03:36:13;2.10;99.90
36002;DHT22;22070;50.922;5.430;2023-02-14T03:42:12;2.20;99.90
36002;DHT22;22070;50.922;5.430;2023-02-14T03:48:36;2.10;99.90
36002;DHT22;22070;50.922;5.430;2023-02-14T04:00:12;1.90;99.90
36002;DHT22;22070;50.922;5.430;2023-02-14T04:02:47;1.90;99.90
36002;DHT22;22070;50.922;5.430;2023-02-14T04:05:26;1.90;99.90
36002;DHT22;22070;50.922;5.430;2023-02-14T04:11:43;2.10;99.90
36002;DHT22;22070;50.922;5.430;2023-02-14T04:21:03;1.90;99.90
36002;DHT22;22070;50.922;5.430;2023-02-14T04:27:16;2.00;99.90
36002;DHT22;22070;50.922;5.430;2023-02-14T04:33:10;1.80;99.90
36002;DHT22;22070;50.922;5.430;2023-02-14T04:39:07;1.90;99.90
36002;DHT22;22070;50.922;5.430;2023-02-14T04:45:15;2.00;99.90
36002;DHT22;22070;50.922;5.430;2023-02-14T04:47:41;2.10;99.90
36002;DHT22;22070;50.922;5.430;2023-02-14T04:53:39;2.00;99.90
36002;DHT22;22070;50.922;5.430;2023-02-14T04:59:49;2.00;99.90
36002;DHT22;22070;50.922;5.430;2023-02-14T05:06:08;1.90;99.90
36002;DHT22;22070;50.922;5.430;2023-02-14T05:12:05;1.90;99.90
36002;DHT22;22070;50.922;5.430;2023-02-14T05:18:02;1.90;99.90
36002;DHT22;22070;50.922;5.430;2023-02-14T05:24:04;1.80;99.90
36002;DHT22;22070;50.922;5.430;2023-02-14T05:26:30;1.70;99.90
36002;DHT22;22070;50.922;5.430;2023-02-14T05:28:55;1.70;99.90
36002;DHT22;22070;50.922;5.430;2023-02-14T05:31:32;1.70;99.90
36002;DHT22;22070;50.922;5.430;2023-02-14T05:33:57;1.70;99.90
36002;DHT22;22070;50.922;5.430;2023-02-14T05:36:23;1.70;99.90
36002;DHT22;22070;50.922;5.430;2023-02-14T05:38:53;1.70;99.90
36002;DHT22;22070;50.922;5.430;2023-02-14T05:44:44;1.60;99.90
36002;DHT22;22070;50.922;5.430;2023-02-14T05:47:09;1.60;99.90
36002;DHT22;22070;50.922;5.430;2023-02-14T05:49:35;1.70;99.90
36002;DHT22;22070;50.922;5.430;2023-02-14T05:52:01;1.70;99.90
36002;DHT22;22070;50.922;5.430;2023-02-14T05:54:33;1.70;99.90
36002;DHT22;22070;50.922;5.430;2023-02-14T06:00:27;1.80;99.90
36002;DHT22;22070;50.922;5.430;2023-02-14T06:09:29;1.70;99.90
36002;DHT22;22070;50.922;5.430;2023-02-14T06:11:55;1.70;99.90
36002;DHT22;22070;50.922;5.430;2023-02-14T06:14:27;1.60;99.90
36002;DHT22;22070;50.922;5.430;2023-02-14T06:16:52;1.60;99.90
36002;DHT22;22070;50.922;5.430;2023-02-14T06:19:18;1.60;99.90
36002;DHT22;22070;50.922;5.430;2023-02-14T06:21:44;1.50;99.90
36002;DHT22;22070;50.922;5.430;2023-02-14T06:24:09;1.50;99.90
36002;DHT22;22070;50.922;5.430;2023-02-14T06:26:49;1.50;99.90
36002;DHT22;22070;50.922;5.430;2023-02-14T06:36:18;1.50;99.90
36002;DHT22;22070;50.922;5.430;2023-02-14T06:42:26;1.50;99.90
36002;DHT22;22070;50.922;5.430;2023-02-14T06:44:52;1.40;99.90
36002;DHT22;22070;50.922;5.430;2023-02-14T06:47:17;1.30;99.90
36002;DHT22;22070;50.922;5.430;2023-02-14T06:50:03;1.30;99.90
36002;DHT22;22070;50.922;5.430;2023-02-14T06:56:26;1.40;99.90
36002;DHT22;22070;50.922;5.430;2023-02-14T07:02:18;1.40;99.90
36002;DHT22;22070;50.922;5.430;2023-02-14T07:08:27;1.40;99.90
36002;DHT22;22070;50.922;5.430;2023-02-14T07:14:29;1.40;99.90
36002;DHT22;22070;50.922;5.430;2023-02-14T07:20:23;1.30;99.90
36002;DHT22;22070;50.922;5.430;2023-02-14T07:26:31;1.50;99.90
36002;DHT22;22070;50.922;5.430;2023-02-14T07:28:56;1.50;99.90
36002;DHT22;22070;50.922;5.430;2023-02-14T07:31:22;1.40;99.90
36002;DHT22;22070;50.922;5.430;2023-02-14T07:34:09;1.40;99.90
36002;DHT22;22070;50.922;5.430;2023-02-14T07:40:20;1.50;99.90
36002;DHT22;22070;50.922;5.430;2023-02-14T07:46:09;1.60;99.90
36002;DHT22;22070;50.922;5.430;2023-02-14T07:56:43;1.60;99.90
36002;DHT22;22070;50.922;5.430;2023-02-14T08:05:52;1.90;99.90
36002;DHT22;22070;50.922;5.430;2023-02-14T08:08:24;2.00;99.90
36002;DHT22;22070;50.922;5.430;2023-02-14T08:14:38;2.20;99.90
36002;DHT22;22070;50.922;5.430;2023-02-14T08:21:00;2.20;99.90
36002;DHT22;22070;50.922;5.430;2023-02-14T08:26:59;2.40;99.90
36002;DHT22;22070;50.922;5.430;2023-02-14T08:33:24;2.60;99.90
36002;DHT22;22070;50.922;5.430;2023-02-14T08:46:02;2.90;99.90
36002;DHT22;22070;50.922;5.430;2023-02-14T08:48:28;3.00;99.90
36002;DHT22;22070;50.922;5.430;2023-02-14T08:50:54;3.10;99.90
36002;DHT22;22070;50.922;5.430;2023-02-14T08:53:19;3.10;99.90
36002;DHT22;22070;50.922;5.430;2023-02-14T08:55:46;3.20;99.90
36002;DHT22;22070;50.922;5.430;2023-02-14T08:58:12;3.20;99.90
36002;DHT22;22070;50.922;5.430;2023-02-14T09:00:38;3.30;99.90
36002;DHT22;22070;50.922;5.430;2023-02-14T09:03:03;3.40;99.90
36002;DHT22;22070;50.922;5.430;2023-02-14T09:05:29;3.50;99.90
36002;DHT22;22070;50.922;5.430;2023-02-14T09:08:01;3.60;99.90
36002;DHT22;22070;50.922;5.430;2023-02-14T09:10:27;3.70;99.90
36002;DHT22;22070;50.922;5.430;2023-02-14T09:12:52;3.80;99.90
36002;DHT22;22070;50.922;5.430;2023-02-14T09:15:18;4.00;99.90
36002;DHT22;22070;50.922;5.430;2023-02-14T09:17:44;4.00;99.90
36002;DHT22;22070;50.922;5.430;2023-02-14T09:20:11;4.10;99.90
36002;DHT22;22070;50.922;5.430;2023-02-14T09:22:37;4.20;99.90
36002;DHT22;22070;50.922;5.430;2023-02-14T09:25:03;4.30;99.90
36002;DHT22;22070;50.922;5.430;2023-02-14T09:27:30;4.30;99.90
36002;DHT22;22070;50.922;5.430;2023-02-14T09:29:56;4.50;99.90
36002;DHT22;22070;50.922;5.430;2023-02-14T09:32:22;4.50;99.90
36002;DHT22;22070;50.922;5.430;2023-02-14T09:34:47;4.70;99.90
36002;DHT22;22070;50.922;5.430;2023-02-14T09:37:13;4.70;99.90
36002;DHT22;22070;50.922;5.430;2023-02-14T09:39:58;4.80;99.90
36002;DHT22;22070;50.922;5.430;2023-02-14T09:45:38;5.10;99.90
36002;DHT22;22070;50.922;5.430;2023-02-14T09:50:55;5.20;99.90
36002;DHT22;22070;50.922;5.430;2023-02-14T09:53:27;5.30;99.90
36002;DHT22;22070;50.922;5.430;2023-02-14T09:56:18;5.40;99.90
36002;DHT22;22070;50.922;5.430;2023-02-14T09:59:06;5.50;99.90
36002;DHT22;22070;50.922;5.430;2023-02-14T10:01:45;5.60;99.90
36002;DHT22;22070;50.922;5.430;2023-02-14T10:04:40;5.70;99.90
36002;DHT22;22070;50.922;5.430;2023-02-14T10:09:48;5.90;99.90
36002;DHT22;22070;50.922;5.430;2023-02-14T10:14:55;6.10;99.90
36002;DHT22;22070;50.922;5.430;2023-02-14T10:17:31;6.30;99.90
36002;DHT22;22070;50.922;5.430;2023-02-14T10:20:03;6.40;99.90
36002;DHT22;22070;50.922;5.430;2023-02-14T10:22:42;6.50;99.90
36002;DHT22;22070;50.922;5.430;2023-02-14T10:25:20;6.60;99.90
36002;DHT22;22070;50.922;5.430;2023-02-14T10:27:47;6.70;99.90
36002;DHT22;22070;50.922;5.430;2023-02-14T10:30:19;6.80;99.90
36002;DHT22;22070;50.922;5.430;2023-02-14T10:32:48;6.80;99.90
36002;DHT22;22070;50.922;5.430;2023-02-14T10:41:24;7.30;99.90
36002;DHT22;22070;50.922;5.430;2023-02-14T10:44:15;7.50;99.90
36002;DHT22;22070;50.922;5.430;2023-02-14T10:47:09;7.70;99.90
36002;DHT22;22070;50.922;5.430;2023-02-14T10:52:24;7.80;99.90
36002;DHT22;22070;50.922;5.430;2023-02-14T10:54:56;7.90;99.90
36002;DHT22;22070;50.922;5.430;2023-02-14T10:57:39;8.00;99.90
36002;DHT22;22070;50.922;5.430;2023-02-14T11:00:23;8.00;99.90
36002;DHT22;22070;50.922;5.430;2023-02-14T11:02:52;8.20;99.90
36002;DHT22;22070;50.922;5.430;2023-02-14T11:05:42;8.30;99.90
36002;DHT22;22070;50.922;5.430;2023-02-14T11:08:22;8.50;99.90
36002;DHT22;22070;50.922;5.430;2023-02-14T11:10:49;8.70;99.90
36002;DHT22;22070;50.922;5.430;2023-02-14T11:13:33;8.90;99.90
36002;DHT22;22070;50.922;5.430;2023-02-14T11:16:11;9.00;99.90
36002;DHT22;22070;50.922;5.430;2023-02-14T11:18:39;9.10;99.90
36002;DHT22;22070;50.922;5.430;2023-02-14T11:21:09;9.30;99.90
36002;DHT22;22070;50.922;5.430;2023-02-14T11:23:46;9.30;99.90
36002;DHT22;22070;50.922;5.430;2023-02-14T11:26:31;9.30;99.90
36002;DHT22;22070;50.922;5.430;2023-02-14T11:29:09;9.30;99.90
36002;DHT22;22070;50.922;5.430;2023-02-14T11:31:37;9.40;99.90
36002;DHT22;22070;50.922;5.430;2023-02-14T11:36:55;9.50;99.90
36002;DHT22;22070;50.922;5.430;2023-02-14T11:39:32;9.50;99.90
36002;DHT22;22070;50.922;5.430;2023-02-14T11:42:03;9.50;99.90
36002;DHT22;22070;50.922;5.430;2023-02-14T11:44:31;9.50;99.90
36002;DHT22;22070;50.922;5.430;2023-02-14T11:47:17;9.60;99.90
36002;DHT22;22070;50.922;5.430;2023-02-14T11:49:57;9.60;99.90
36002;DHT22;22070;50.922;5.430;2023-02-14T11:52:26;9.70;99.90
36002;DHT22;22070;50.922;5.430;2023-02-14T11:54:55;9.80;99.90
36002;DHT22;22070;50.922;5.430;2023-02-14T11:57:22;9.80;99.90
36002;DHT22;22070;50.922;5.430;2023-02-14T11:59:51;9.80;99.90
36002;DHT22;22070;50.922;5.430;2023-02-14T12:04:56;10.00;99.90
36002;DHT22;22070;50.922;5.430;2023-02-14T12:07:29;10.10;99.90
36002;DHT22;22070;50.922;5.430;2023-02-14T12:10:14;10.10;99.90
36002;DHT22;22070;50.922;5.430;2023-02-14T12:15:31;10.20;99.90
36002;DHT22;22070;50.922;5.430;2023-02-14T12:21:20;10.40;99.90
36002;DHT22;22070;50.922;5.430;2023-02-14T12:26:49;10.60;99.90
36002;DHT22;22070;50.922;5.430;2023-02-14T12:29:31;10.70;99.90
36002;DHT22;22070;50.922;5.430;2023-02-14T12:32:01;10.60;99.90
36002;DHT22;22070;50.922;5.430;2023-02-14T12:34:27;10.70;99.90
36002;DHT22;22070;50.922;5.430;2023-02-14T12:37:02;10.70;99.90
36002;DHT22;22070;50.922;5.430;2023-02-14T12:39:37;10.80;99.90
36002;DHT22;22070;50.922;5.430;2023-02-14T12:42:31;10.80;99.90
36002;DHT22;22070;50.922;5.430;2023-02-14T12:50:52;11.20;99.90
36002;DHT22;22070;50.922;5.430;2023-02-14T13:04:33;11.40;99.90
36002;DHT22;22070;50.922;5.430;2023-02-14T13:13:19;11.60;99.90
36002;DHT22;22070;50.922;5.430;2023-02-14T13:15:53;11.70;99.90
36002;DHT22;22070;50.922;5.430;2023-02-14T13:21:00;11.70;99.90
36002;DHT22;22070;50.922;5.430;2023-02-14T13:23:34;11.70;99.90
36002;DHT22;22070;50.922;5.430;2023-02-14T13:28:30;11.80;99.90
36002;DHT22;22070;50.922;5.430;2023-02-14T13:30:58;11.70;99.90
36002;DHT22;22070;50.922;5.430;2023-02-14T13:36:12;11.80;99.90
36002;DHT22;22070;50.922;5.430;2023-02-14T13:38:48;11.90;99.90
36002;DHT22;22070;50.922;5.430;2023-02-14T13:41:16;12.00;99.90
36002;DHT22;22070;50.922;5.430;2023-02-14T13:43:49;12.00;99.90
36002;DHT22;22070;50.922;5.430;2023-02-14T13:46:48;12.10;99.90
36002;DHT22;22070;50.922;5.430;2023-02-14T13:49:30;12.10;99.90
36002;DHT22;22070;50.922;5.430;2023-02-14T13:51:59;12.00;99.90
36002;DHT22;22070;50.922;5.430;2023-02-14T13:54:51;12.10;99.90
36002;DHT22;22070;50.922;5.430;2023-02-14T13:57:30;12.10;99.90
36002;DHT22;22070;50.922;5.430;2023-02-14T14:10:46;12.60;99.90
36002;DHT22;22070;50.922;5.430;2023-02-14T14:19:09;12.70;99.90
36002;DHT22;22070;50.922;5.430;2023-02-14T14:22:03;12.70;99.90
36002;DHT22;22070;50.922;5.430;2023-02-14T14:24:31;12.80;99.90
36002;DHT22;22070;50.922;5.430;2023-02-14T14:31:57;13.10;99.90
36002;DHT22;22070;50.922;5.430;2023-02-14T14:34:26;13.10;99.90
36002;DHT22;22070;50.922;5.430;2023-02-14T14:37:07;13.10;99.90
36002;DHT22;22070;50.922;5.430;2023-02-14T14:39:40;13.20;99.90
36002;DHT22;22070;50.922;5.430;2023-02-14T14:42:13;13.30;99.90
36002;DHT22;22070;50.922;5.430;2023-02-14T14:44:49;13.40;99.90
36002;DHT22;22070;50.922;5.430;2023-02-14T14:47:18;13.50;99.90
36002;DHT22;22070;50.922;5.430;2023-02-14T14:49:45;13.50;99.90
36002;DHT22;22070;50.922;5.430;2023-02-14T14:52:28;13.50;99.90
36002;DHT22;22070;50.922;5.430;2023-02-14T14:54:55;13.60;99.90
36002;DHT22;22070;50.922;5.430;2023-02-14T14:57:22;13.50;99.90
36002;DHT22;22070;50.922;5.430;2023-02-14T14:59:47;13.50;99.90
36002;DHT22;22070;50.922;5.430;2023-02-14T15:02:22;13.50;99.90
36002;DHT22;22070;50.922;5.430;2023-02-14T15:04:48;13.70;99.90
36002;DHT22;22070;50.922;5.430;2023-02-14T15:07:34;13.70;99.90
36002;DHT22;22070;50.922;5.430;2023-02-14T15:10:00;13.80;99.90
36002;DHT22;22070;50.922;5.430;2023-02-14T15:12:27;13.80;99.90
36002;DHT22;22070;50.922;5.430;2023-02-14T15:15:15;13.80;99.90
36002;DHT22;22070;50.922;5.430;2023-02-14T15:17:42;13.80;99.90
36002;DHT22;22070;50.922;5.430;2023-02-14T15:20:14;13.80;99.90
36002;DHT22;22070;50.922;5.430;2023-02-14T15:22:44;13.70;99.90
36002;DHT22;22070;50.922;5.430;2023-02-14T15:25:31;13.80;99.90
36002;DHT22;22070;50.922;5.430;2023-02-14T15:27:57;13.80;99.90
36002;DHT22;22070;50.922;5.430;2023-02-14T15:30:27;13.70;99.90
36002;DHT22;22070;50.922;5.430;2023-02-14T15:33:00;13.70;99.90
36002;DHT22;22070;50.922;5.430;2023-02-14T15:35:30;13.60;99.90
36002;DHT22;22070;50.922;5.430;2023-02-14T15:37:57;13.80;99.90
36002;DHT22;22070;50.922;5.430;2023-02-14T15:40:26;13.80;99.90
36002;DHT22;22070;50.922;5.430;2023-02-14T15:42:52;13.80;99.90
36002;DHT22;22070;50.922;5.430;2023-02-14T15:45:29;13.70;99.90
36002;DHT22;22070;50.922;5.430;2023-02-14T15:47:56;13.80;99.90
36002;DHT22;22070;50.922;5.430;2023-02-14T15:50:31;13.80;99.90
36002;DHT22;22070;50.922;5.430;2023-02-14T15:53:07;13.80;99.90
36002;DHT22;22070;50.922;5.430;2023-02-14T15:55:33;13.80;99.90
36002;DHT22;22070;50.922;5.430;2023-02-14T15:58:07;13.80;99.90
36002;DHT22;22070;50.922;5.430;2023-02-14T16:00:38;13.70;99.90
36002;DHT22;22070;50.922;5.430;2023-02-14T16:03:11;13.60;99.90
36002;DHT22;22070;50.922;5.430;2023-02-14T16:05:46;13.50;99.90
36002;DHT22;22070;50.922;5.430;2023-02-14T16:08:41;13.40;99.90
36002;DHT22;22070;50.922;5.430;2023-02-14T16:11:27;13.40;99.90
36002;DHT22;22070;50.922;5.430;2023-02-14T16:13:53;13.30;99.90
36002;DHT22;22070;50.922;5.430;2023-02-14T16:16:19;13.10;99.90
36002;DHT22;22070;50.922;5.430;2023-02-14T16:18:46;13.00;99.90
36002;DHT22;22070;50.922;5.430;2023-02-14T16:21:24;12.90;99.90
36002;DHT22;22070;50.922;5.430;2023-02-14T16:26:41;12.80;99.90
36002;DHT22;22070;50.922;5.430;2023-02-14T16:29:13;12.80;99.90
36002;DHT22;22070;50.922;5.430;2023-02-14T16:31:55;13.00;99.90
36002;DHT22;22070;50.922;5.430;2023-02-14T16:34:21;13.00;99.90
36002;DHT22;22070;50.922;5.430;2023-02-14T16:36:48;12.90;99.90
36002;DHT22;22070;50.922;5.430;2023-02-14T16:39:21;12.80;99.90
36002;DHT22;22070;50.922;5.430;2023-02-14T16:41:51;12.60;99.90
36002;DHT22;22070;50.922;5.430;2023-02-14T16:44:19;12.40;99.90
36002;DHT22;22070;50.922;5.430;2023-02-14T16:46:45;12.20;99.90
36002;DHT22;22070;50.922;5.430;2023-02-14T16:49:11;12.10;99.90
36002;DHT22;22070;50.922;5.430;2023-02-14T16:51:41;11.90;99.90
36002;DHT22;22070;50.922;5.430;2023-02-14T16:54:11;11.70;99.90
36002;DHT22;22070;50.922;5.430;2023-02-14T16:56:43;11.50;99.90
36002;DHT22;22070;50.922;5.430;2023-02-14T16:59:10;11.30;99.90
36002;DHT22;22070;50.922;5.430;2023-02-14T17:01:36;11.20;99.90
36002;DHT22;22070;50.922;5.430;2023-02-14T17:04:02;11.00;99.90
36002;DHT22;22070;50.922;5.430;2023-02-14T17:06:29;10.80;99.90
36002;DHT22;22070;50.922;5.430;2023-02-14T17:08:59;10.70;99.90
36002;DHT22;22070;50.922;5.430;2023-02-14T17:11:27;10.60;99.90
36002;DHT22;22070;50.922;5.430;2023-02-14T17:13:55;10.50;99.90
36002;DHT22;22070;50.922;5.430;2023-02-14T17:16:21;10.40;99.90
36002;DHT22;22070;50.922;5.430;2023-02-14T17:18:49;10.20;99.90
36002;DHT22;22070;50.922;5.430;2023-02-14T17:21:20;10.10;99.90
36002;DHT22;22070;50.922;5.430;2023-02-14T17:23:46;9.90;99.90
36002;DHT22;22070;50.922;5.430;2023-02-14T17:26:12;9.80;99.90
36002;DHT22;22070;50.922;5.430;2023-02-14T17:28:38;9.70;99.90
36002;DHT22;22070;50.922;5.430;2023-02-14T17:31:04;9.60;99.90
36002;DHT22;22070;50.922;5.430;2023-02-14T17:33:33;9.50;99.90
36002;DHT22;22070;50.922;5.430;2023-02-14T17:36:10;9.40;99.90
36002;DHT22;22070;50.922;5.430;2023-02-14T17:38:36;9.30;99.90
36002;DHT22;22070;50.922;5.430;2023-02-14T17:41:24;9.20;99.90
36002;DHT22;22070;50.922;5.430;2023-02-14T17:43:50;9.10;99.90
36002;DHT22;22070;50.922;5.430;2023-02-14T17:46:17;9.00;99.90
36002;DHT22;22070;50.922;5.430;2023-02-14T17:48:44;8.90;99.90
36002;DHT22;22070;50.922;5.430;2023-02-14T17:51:11;8.80;99.90
36002;DHT22;22070;50.922;5.430;2023-02-14T17:53:37;8.70;99.90
36002;DHT22;22070;50.922;5.430;2023-02-14T17:56:10;8.60;99.90
36002;DHT22;22070;50.922;5.430;2023-02-14T17:58:36;8.60;99.90
36002;DHT22;22070;50.922;5.430;2023-02-14T18:01:08;8.50;99.90
36002;DHT22;22070;50.922;5.430;2023-02-14T18:03:34;8.50;99.90
36002;DHT22;22070;50.922;5.430;2023-02-14T18:06:01;8.40;99.90
36002;DHT22;22070;50.922;5.430;2023-02-14T18:08:28;8.30;99.90
36002;DHT22;22070;50.922;5.430;2023-02-14T18:10:54;8.20;99.90
36002;DHT22;22070;50.922;5.430;2023-02-14T18:13:21;8.20;99.90
36002;DHT22;22070;50.922;5.430;2023-02-14T18:15:46;8.10;99.90
36002;DHT22;22070;50.922;5.430;2023-02-14T18:18:12;8.00;99.90
36002;DHT22;22070;50.922;5.430;2023-02-14T18:20:38;8.00;99.90
36002;DHT22;22070;50.922;5.430;2023-02-14T18:23:03;7.90;99.90
36002;DHT22;22070;50.922;5.430;2023-02-14T18:25:32;7.90;99.90
36002;DHT22;22070;50.922;5.430;2023-02-14T18:27:58;7.80;99.90
36002;DHT22;22070;50.922;5.430;2023-02-14T18:30:24;7.70;99.90
36002;DHT22;22070;50.922;5.430;2023-02-14T18:32:49;7.70;99.90
36002;DHT22;22070;50.922;5.430;2023-02-14T18:35:15;7.60;99.90
36002;DHT22;22070;50.922;5.430;2023-02-14T18:37:41;7.60;99.90
36002;DHT22;22070;50.922;5.430;2023-02-14T18:40:08;7.50;99.90
36002;DHT22;22070;50.922;5.430;2023-02-14T18:42:34;7.50;99.90
36002;DHT22;22070;50.922;5.430;2023-02-14T18:44:59;7.40;99.90
36002;DHT22;22070;50.922;5.430;2023-02-14T18:47:25;7.40;99.90
36002;DHT22;22070;50.922;5.430;2023-02-14T18:49:51;7.30;99.90
36002;DHT22;22070;50.922;5.430;2023-02-14T18:52:16;7.30;99.90
36002;DHT22;22070;50.922;5.430;2023-02-14T18:54:42;7.20;99.90
36002;DHT22;22070;50.922;5.430;2023-02-14T18:57:08;7.10;99.90
36002;DHT22;22070;50.922;5.430;2023-02-14T18:59:33;7.10;99.90
36002;DHT22;22070;50.922;5.430;2023-02-14T19:01:59;7.00;99.90
36002;DHT22;22070;50.922;5.430;2023-02-14T19:04:24;7.00;99.90
36002;DHT22;22070;50.922;5.430;2023-02-14T19:06:51;6.90;99.90
36002;DHT22;22070;50.922;5.430;2023-02-14T19:09:17;6.90;99.90
36002;DHT22;22070;50.922;5.430;2023-02-14T19:11:43;6.80;99.90
36002;DHT22;22070;50.922;5.430;2023-02-14T19:14:09;6.80;99.90
36002;DHT22;22070;50.922;5.430;2023-02-14T19:16:45;6.70;99.90
36002;DHT22;22070;50.922;5.430;2023-02-14T19:19:18;6.70;99.90
36002;DHT22;22070;50.922;5.430;2023-02-14T19:21:44;6.60;99.90
36002;DHT22;22070;50.922;5.430;2023-02-14T19:24:10;6.50;99.90
36002;DHT22;22070;50.922;5.430;2023-02-14T19:26:37;6.50;99.90
36002;DHT22;22070;50.922;5.430;2023-02-14T19:29:12;6.50;99.90
36002;DHT22;22070;50.922;5.430;2023-02-14T19:31:41;6.40;99.90
36002;DHT22;22070;50.922;5.430;2023-02-14T19:34:12;6.40;99.90
36002;DHT22;22070;50.922;5.430;2023-02-14T19:36:38;6.30;99.90
36002;DHT22;22070;50.922;5.430;2023-02-14T19:39:04;6.30;99.90
36002;DHT22;22070;50.922;5.430;2023-02-14T19:41:31;6.30;99.90
36002;DHT22;22070;50.922;5.430;2023-02-14T19:44:00;6.30;99.90
36002;DHT22;22070;50.922;5.430;2023-02-14T19:46:27;6.30;99.90
36002;DHT22;22070;50.922;5.430;2023-02-14T19:48:55;6.30;99.90
36002;DHT22;22070;50.922;5.430;2023-02-14T19:51:27;6.20;99.90
36002;DHT22;22070;50.922;5.430;2023-02-14T19:53:54;6.20;99.90
36002;DHT22;22070;50.922;5.430;2023-02-14T19:56:25;6.10;99.90
36002;DHT22;22070;50.922;5.430;2023-02-14T19:58:53;6.10;99.90
36002;DHT22;22070;50.922;5.430;2023-02-14T20:03:51;6.00;99.90
36002;DHT22;22070;50.922;5.430;2023-02-14T20:06:18;6.00;99.90
36002;DHT22;22070;50.922;5.430;2023-02-14T20:08:44;5.90;99.90
36002;DHT22;22070;50.922;5.430;2023-02-14T20:13:47;5.80;99.90
36002;DHT22;22070;50.922;5.430;2023-02-14T20:16:12;5.70;99.90
36002;DHT22;22070;50.922;5.430;2023-02-14T20:18:38;5.70;99.90
36002;DHT22;22070;50.922;5.430;2023-02-14T20:21:04;5.60;99.90
36002;DHT22;22070;50.922;5.430;2023-02-14T20:23:31;5.60;99.90
36002;DHT22;22070;50.922;5.430;2023-02-14T20:25:57;5.70;99.90
36002;DHT22;22070;50.922;5.430;2023-02-14T20:28:22;5.60;99.90
36002;DHT22;22070;50.922;5.430;2023-02-14T20:30:48;5.60;99.90
36002;DHT22;22070;50.922;5.430;2023-02-14T20:33:14;5.50;99.90
36002;DHT22;22070;50.922;5.430;2023-02-14T20:35:39;5.50;99.90
36002;DHT22;22070;50.922;5.430;2023-02-14T20:38:05;5.40;99.90
36002;DHT22;22070;50.922;5.430;2023-02-14T20:40:36;5.40;99.90
36002;DHT22;22070;50.922;5.430;2023-02-14T20:43:02;5.40;99.90
36002;DHT22;22070;50.922;5.430;2023-02-14T20:45:28;5.40;99.90
36002;DHT22;22070;50.922;5.430;2023-02-14T20:47:54;5.30;99.90
36002;DHT22;22070;50.922;5.430;2023-02-14T20:50:19;5.30;99.90
36002;DHT22;22070;50.922;5.430;2023-02-14T20:52:45;5.30;99.90
36002;DHT22;22070;50.922;5.430;2023-02-14T20:55:11;5.20;99.90
36002;DHT22;22070;50.922;5.430;2023-02-14T20:57:36;5.30;99.90
36002;DHT22;22070;50.922;5.430;2023-02-14T21:00:03;5.20;99.90
36002;DHT22;22070;50.922;5.430;2023-02-14T21:02:30;5.20;99.90
36002;DHT22;22070;50.922;5.430;2023-02-14T21:04:56;5.20;99.90
36002;DHT22;22070;50.922;5.430;2023-02-14T21:07:24;5.10;99.90
36002;DHT22;22070;50.922;5.430;2023-02-14T21:09:57;5.10;99.90
36002;DHT22;22070;50.922;5.430;2023-02-14T21:12:23;5.10;99.90
36002;DHT22;22070;50.922;5.430;2023-02-14T21:14:49;5.00;99.90
36002;DHT22;22070;50.922;5.430;2023-02-14T21:17:15;5.00;99.90
36002;DHT22;22070;50.922;5.430;2023-02-14T21:19:40;4.90;99.90
36002;DHT22;22070;50.922;5.430;2023-02-14T21:22:06;4.90;99.90
36002;DHT22;22070;50.922;5.430;2023-02-14T21:24:31;4.90;99.90
36002;DHT22;22070;50.922;5.430;2023-02-14T21:26:57;4.80;99.90
36002;DHT22;22070;50.922;5.430;2023-02-14T21:29:23;4.90;99.90
36002;DHT22;22070;50.922;5.430;2023-02-14T21:31:48;4.80;99.90
36002;DHT22;22070;50.922;5.430;2023-02-14T21:34:15;4.90;99.90
36002;DHT22;22070;50.922;5.430;2023-02-14T21:36:41;4.80;99.90
36002;DHT22;22070;50.922;5.430;2023-02-14T21:39:06;4.70;99.90
36002;DHT22;22070;50.922;5.430;2023-02-14T21:41:33;4.70;99.90
36002;DHT22;22070;50.922;5.430;2023-02-14T21:44:00;4.60;99.90
36002;DHT22;22070;50.922;5.430;2023-02-14T21:46:32;4.60;99.90
36002;DHT22;22070;50.922;5.430;2023-02-14T21:48:59;4.60;99.90
36002;DHT22;22070;50.922;5.430;2023-02-14T21:51:44;4.60;99.90
36002;DHT22;22070;50.922;5.430;2023-02-14T21:54:10;4.50;99.90